Time;durP1;ratioP1;P1;durP2;ratioP2;P2;SDS_P1;SDS_P2;PMS_P1;PMS_P2;Temp;Humidity;BMP_temperature;BMP_pressure;BME280_temperature;BME280_humidity;BME280_pressure;Samples;Min_cycle;Max_cycle;Signal;HPM_P1;HPM_P2
2021/10/14 00:00:54;;;;;;;6.47;3.35;;;;;;;7.55;93.55;100969.91;5069226;28;20059;-60
2021/10/14 00:03:41;;;;;;;8.90;3.85;;;;;;;7.69;93.05;100969.78;5089680;28;20181;-61
2021/10/14 00:06:26;;;;;;;8.40;3.30;;;;;;;7.54;93.55;100968.22;5082575;28;20520;-60
2021/10/14 00:09:11;;;;;;;7.75;4.05;;;;;;;7.80;92.41;100969.03;5087486;28;20047;-59
2021/10/14 00:11:57;;;;;;;8.57;4.05;;;;;;;7.65;93.08;100972.81;5084464;28;20059;-63
2021/10/14 00:14:42;;;;;;;11.75;4.22;;;;;;;7.65;93.40;100960.31;5090761;28;20063;-62
2021/10/14 00:17:28;;;;;;;8.57;4.03;;;;;;;7.60;93.44;100960.63;5090967;28;20555;-60
2021/10/14 00:20:13;;;;;;;8.67;3.93;;;;;;;7.69;93.33;100966.28;5087642;28;20113;-62
2021/10/14 00:22:58;;;;;;;14.03;4.70;;;;;;;7.57;94.16;100959.97;5083044;28;20113;-60
2021/10/14 00:25:43;;;;;;;9.68;4.55;;;;;;;7.78;92.95;100942.44;5090556;28;20059;-64
2021/10/14 00:28:30;;;;;;;9.73;4.35;;;;;;;7.62;93.55;100948.03;5089637;28;20524;-63
2021/10/14 00:31:15;;;;;;;13.00;4.82;;;;;;;7.76;93.05;100941.69;5081186;28;20414;-60
2021/10/14 00:34:00;;;;;;;9.20;5.32;;;;;;;7.79;92.77;100948.63;5080323;28;21521;-60
2021/10/14 00:36:45;;;;;;;8.98;5.00;;;;;;;7.64;93.27;100939.88;5089484;28;20063;-64
2021/10/14 00:39:30;;;;;;;10.00;4.22;;;;;;;7.61;93.83;100942.78;5071698;28;20129;-62
2021/10/14 00:42:15;;;;;;;9.45;5.40;;;;;;;7.71;93.32;100933.16;5087240;28;20559;-62
2021/10/14 00:45:03;;;;;;;9.40;5.00;;;;;;;7.68;93.42;100944.03;5089377;28;20077;-63
2021/10/14 00:47:48;;;;;;;9.77;5.32;;;;;;;7.99;91.55;100937.38;5088260;28;20066;-60
2021/10/14 00:50:33;;;;;;;12.68;6.13;;;;;;;7.92;91.91;100939.63;5087441;28;20429;-62
2021/10/14 00:53:19;;;;;;;11.70;6.27;;;;;;;7.91;92.24;100939.72;5087045;28;20559;-62
2021/10/14 00:56:05;;;;;;;8.70;5.07;;;;;;;8.11;90.79;100932.97;5078398;28;20070;-63
2021/10/14 00:58:50;;;;;;;8.75;5.10;;;;;;;7.95;91.45;100935.91;5081540;28;20059;-61
2021/10/14 01:01:37;;;;;;;8.18;4.47;;;;;;;7.95;91.62;100933.22;5074648;28;20059;-58
2021/10/14 01:04:21;;;;;;;;;;;;;;;7.81;92.50;100936.91;5090107;28;20059;-62
2021/10/14 01:07:06;;;;;;;9.82;4.22;;;;;;;7.82;92.61;100932.41;5081142;28;19997;-61
2021/10/14 01:09:51;;;;;;;8.95;4.28;;;;;;;7.75;93.11;100931.97;5089149;28;20063;-61
2021/10/14 01:12:38;;;;;;;10.93;4.35;;;;;;;7.75;93.25;100929.28;5087827;28;20051;-63
2021/10/14 01:15:25;;;;;;;11.68;5.13;;;;;;;7.72;94.13;100915.31;5077361;28;20055;-59
2021/10/14 01:18:13;;;;;;;8.60;4.40;;;;;;;7.71;93.88;100921.63;5078083;28;20062;-60
2021/10/14 01:20:59;;;;;;;12.38;5.47;;;;;;;7.66;94.50;100929.94;5087513;28;20513;-61
2021/10/14 01:23:44;;;;;;;8.05;4.38;;;;;;;7.67;94.77;100925.47;5082462;28;20529;-63
2021/10/14 01:26:30;;;;;;;9.03;4.80;;;;;;;7.78;94.07;100918.38;5084434;28;20055;-62
2021/10/14 01:29:15;;;;;;;8.05;4.57;;;;;;;7.66;95.07;100921.06;5087092;28;20059;-60
2021/10/14 01:32:01;;;;;;;8.07;4.37;;;;;;;7.56;95.95;100920.88;5083101;28;20055;-61
2021/10/14 01:34:46;;;;;;;10.00;4.07;;;;;;;7.72;94.92;100918.84;5086930;28;20059;-63
2021/10/14 01:37:33;;;;;;;10.50;4.90;;;;;;;7.55;96.51;100916.50;5078392;28;20055;-62
2021/10/14 01:40:17;;;;;;;;;;;;;;;7.55;96.30;100912.00;5087612;28;20421;-62
2021/10/14 01:43:02;;;;;;;9.48;5.22;;;;;;;7.50;97.13;100918.66;5070694;28;19926;-63
2021/10/14 01:45:48;;;;;;;9.52;4.70;;;;;;;7.53;96.38;100918.44;5087423;28;20429;-61
2021/10/14 01:48:34;;;;;;;8.60;4.15;;;;;;;7.49;97.29;100906.25;5089825;28;20055;-63
2021/10/14 01:51:19;;;;;;;;;;;;;;;7.48;97.70;100901.88;5070091;28;20094;-61
2021/10/14 01:54:05;;;;;;;10.15;4.00;;;;;;;7.43;98.04;100896.00;5068395;28;19931;-64
2021/10/14 01:56:50;;;;;;;7.30;4.35;;;;;;;7.44;98.23;100889.69;5088591;28;20055;-63
2021/10/14 01:59:35;;;;;;;13.23;4.35;;;;;;;7.47;98.12;100884.16;5089132;28;20051;-62
2021/10/14 02:02:21;;;;;;;8.35;3.90;;;;;;;7.47;98.09;100885.00;5079093;28;20051;-64
2021/10/14 02:05:07;;;;;;;6.57;3.70;;;;;;;7.46;98.34;100888.63;5085580;28;20066;-63
2021/10/14 02:07:52;;;;;;;6.18;4.07;;;;;;;7.42;98.54;100880.94;5066383;28;20550;-62
2021/10/14 02:10:38;;;;;;;7.28;3.85;;;;;;;7.43;98.74;100875.47;5085479;28;20051;-62
2021/10/14 02:13:23;;;;;;;6.57;3.53;;;;;;;7.44;98.83;100879.00;5083411;28;20456;-61
2021/10/14 02:16:08;;;;;;;9.50;4.07;;;;;;;7.52;98.28;100882.00;5085205;28;20418;-62
2021/10/14 02:18:53;;;;;;;7.50;3.85;;;;;;;7.51;98.30;100872.28;5083542;28;20067;-61
2021/10/14 02:21:39;;;;;;;7.05;3.38;;;;;;;7.58;97.86;100876.22;5088749;28;20078;-63
2021/10/14 02:24:23;;;;;;;6.18;3.00;;;;;;;7.62;98.01;100872.38;5077567;28;20406;-60
2021/10/14 02:27:10;;;;;;;6.22;3.35;;;;;;;7.63;97.66;100860.72;5084649;28;20059;-59
2021/10/14 02:29:55;;;;;;;3.63;2.22;;;;;;;7.57;97.76;100867.31;5080547;28;20055;-60
2021/10/14 02:32:40;;;;;;;3.60;2.10;;;;;;;7.58;97.81;100862.88;5081725;28;20177;-60
2021/10/14 02:35:25;;;;;;;4.80;2.65;;;;;;;7.59;97.95;100859.22;5087068;28;20051;-62
2021/10/14 02:38:10;;;;;;;4.63;2.72;;;;;;;7.78;96.60;100856.91;5088308;28;20098;-58
2021/10/14 02:40:56;;;;;;;3.45;2.28;;;;;;;7.74;97.15;100863.47;5085702;28;20059;-59
2021/10/14 02:43:42;;;;;;;3.83;2.20;;;;;;;7.67;96.76;100854.16;5086458;28;20593;-60
2021/10/14 02:46:28;;;;;;;4.25;2.70;;;;;;;7.57;97.88;100853.13;5082457;28;20067;-61
2021/10/14 02:49:13;;;;;;;4.28;2.47;;;;;;;7.56;98.42;100849.59;5085720;28;20055;-59
2021/10/14 02:51:58;;;;;;;4.78;2.30;;;;;;;7.64;97.46;100854.41;5090779;28;20455;-62
2021/10/14 02:54:43;;;;;;;3.45;2.22;;;;;;;7.56;97.93;100843.41;5080489;28;20434;-62
2021/10/14 02:57:28;;;;;;;7.20;2.35;;;;;;;7.62;98.06;100838.50;5081134;28;20105;-62
2021/10/14 03:00:15;;;;;;;5.85;2.20;;;;;;;7.49;98.58;100835.00;5088067;28;20079;-61
2021/10/14 03:03:00;;;;;;;4.43;2.00;;;;;;;7.54;98.80;100832.84;5071139;28;20063;-63
2021/10/14 03:05:45;;;;;;;3.08;1.98;;;;;;;7.47;99.08;100828.06;5140236;22;20105;-64
2021/10/14 03:08:30;;;;;;;3.80;1.80;;;;;;;7.45;99.50;100829.97;5066515;28;20055;-64
2021/10/14 03:11:15;;;;;;;4.78;1.70;;;;;;;7.43;99.90;100826.56;5069080;28;20055;-64
2021/10/14 03:14:00;;;;;;;2.63;1.60;;;;;;;7.48;99.54;100829.75;5071338;28;20060;-64
2021/10/14 03:16:46;;;;;;;4.50;2.20;;;;;;;7.44;99.68;100818.44;5052177;28;20126;-62
2021/10/14 03:19:31;;;;;;;;;;;;;;;7.50;99.66;100818.00;5052188;28;20055;-62
2021/10/14 03:22:16;;;;;;;2.72;1.67;;;;;;;7.47;99.98;100812.03;5052042;28;20022;-64
2021/10/14 03:25:01;;;;;;;2.17;1.30;;;;;;;7.63;98.53;100812.63;5047437;28;20056;-63
2021/10/14 03:27:46;;;;;;;3.50;1.40;;;;;;;7.58;99.06;100809.44;5051416;28;20098;-62
2021/10/14 03:30:31;;;;;;;3.13;1.70;;;;;;;7.51;99.34;100809.03;5052602;28;20517;-63
2021/10/14 03:33:17;;;;;;;2.67;1.70;;;;;;;7.58;98.70;100812.13;5051609;28;20095;-63
2021/10/14 03:36:03;;;;;;;4.03;1.33;;;;;;;7.56;99.15;100798.84;5051647;28;20429;-63
2021/10/14 03:38:48;;;;;;;3.28;1.48;;;;;;;7.50;99.45;100793.13;5041141;28;20130;-64
2021/10/14 03:41:33;;;;;;;1.43;1.07;;;;;;;7.49;99.79;100797.59;5049625;28;20131;-63
2021/10/14 03:44:18;;;;;;;2.10;1.30;;;;;;;7.73;98.17;100799.44;5052358;28;20052;-64
2021/10/14 03:47:03;;;;;;;2.97;1.30;;;;;;;7.79;97.92;100791.81;5052405;28;20048;-60
2021/10/14 03:49:49;;;;;;;2.53;1.08;;;;;;;7.65;98.82;100789.31;5050074;28;20059;-63
2021/10/14 03:52:34;;;;;;;;;;;;;;;7.62;99.43;100802.91;5052142;28;20411;-65
2021/10/14 03:55:19;;;;;;;1.83;1.08;;;;;;;7.58;99.79;100798.75;5038573;28;19944;-64
2021/10/14 03:58:05;;;;;;;2.03;1.20;;;;;;;7.63;99.25;100796.59;5045878;28;20072;-64
2021/10/14 04:00:50;;;;;;;2.03;0.80;;;;;;;7.81;99.06;100794.38;5049958;28;20572;-63
2021/10/14 04:03:35;;;;;;;1.42;0.93;;;;;;;7.71;98.56;100794.22;5051342;28;20411;-65
2021/10/14 04:06:21;;;;;;;2.30;0.82;;;;;;;7.63;99.23;100799.25;5045833;28;20121;-61
2021/10/14 04:09:06;;;;;;;1.85;1.17;;;;;;;7.59;99.42;100787.97;5051420;28;20051;-63
2021/10/14 04:11:51;;;;;;;2.78;1.35;;;;;;;7.62;99.45;100798.41;5051211;28;20111;-63
2021/10/14 04:14:36;;;;;;;2.95;1.27;;;;;;;7.73;99.10;100789.63;5051554;28;20048;-64
2021/10/14 04:17:21;;;;;;;2.08;1.33;;;;;;;7.65;99.17;100788.47;5051012;28;20047;-64
2021/10/14 04:20:08;;;;;;;2.15;1.13;;;;;;;7.67;99.20;100787.38;5043256;28;20150;-64
2021/10/14 04:22:54;;;;;;;2.70;1.17;;;;;;;7.69;99.16;100792.59;5050261;28;20071;-63
2021/10/14 04:25:39;;;;;;;2.67;1.00;;;;;;;7.62;99.67;100786.88;5051399;28;20056;-64
2021/10/14 04:28:24;;;;;;;2.35;1.15;;;;;;;7.60;99.66;100781.66;5051798;28;20426;-64
2021/10/14 04:31:10;;;;;;;1.55;0.85;;;;;;;7.62;99.41;100784.19;5049172;28;20064;-63
2021/10/14 04:33:55;;;;;;;1.45;0.95;;;;;;;7.58;99.84;100788.06;5049466;28;20052;-63
2021/10/14 04:36:40;;;;;;;2.55;1.20;;;;;;;7.57;99.93;100792.53;5045741;28;20099;-64
2021/10/14 04:39:27;;;;;;;1.75;1.23;;;;;;;7.65;99.37;100783.13;5049966;28;20060;-63
2021/10/14 04:42:12;;;;;;;3.75;0.90;;;;;;;7.84;98.46;100788.81;5039251;28;20060;-65
2021/10/14 04:44:57;;;;;;;3.35;1.05;;;;;;;7.81;98.18;100795.25;5048210;28;20051;-65
2021/10/14 04:47:42;;;;;;;2.75;1.00;;;;;;;7.88;97.76;100790.28;5051055;28;20157;-63
2021/10/14 04:50:27;;;;;;;2.00;1.20;;;;;;;7.68;99.42;100785.56;5050718;28;20201;-63
2021/10/14 04:53:12;;;;;;;2.17;1.20;;;;;;;7.59;100.00;100781.75;5051003;28;20190;-64
2021/10/14 04:55:58;;;;;;;4.10;1.45;;;;;;;7.73;98.80;100781.59;5050262;28;20622;-61
2021/10/14 04:58:43;;;;;;;;;;;;;;;7.76;98.73;100776.03;5041648;28;20493;-64
2021/10/14 05:01:28;;;;;;;2.80;1.33;;;;;;;7.72;98.80;100785.25;5045918;28;20055;-64
2021/10/14 05:04:14;;;;;;;2.50;1.40;;;;;;;7.65;99.74;100783.97;5031663;28;20048;-64
2021/10/14 05:06:59;;;;;;;48.13;20.38;;;;;;;7.82;99.25;100778.25;5049299;28;20052;-63
2021/10/14 05:09:44;;;;;;;189.27;95.85;;;;;;;7.81;99.10;100778.34;5049824;28;20060;-64
2021/10/14 05:12:31;;;;;;;8.57;5.00;;;;;;;7.90;97.84;100783.88;5051500;28;20527;-64
2021/10/14 05:15:16;;;;;;;;;;;;;;;8.02;98.03;100781.25;5050384;28;20435;-63
2021/10/14 05:18:01;;;;;;;32.35;15.15;;;;;;;8.02;97.66;100779.44;5048815;28;20047;-64
2021/10/14 05:20:46;;;;;;;6.75;3.95;;;;;;;7.89;98.13;100782.16;5048564;28;20426;-65
2021/10/14 05:23:31;;;;;;;4.53;2.20;;;;;;;7.80;98.98;100773.97;5049832;28;20048;-63
2021/10/14 05:26:16;;;;;;;2.88;1.75;;;;;;;7.76;99.61;100789.38;5049905;28;20059;-64
2021/10/14 05:29:02;;;;;;;6.00;2.90;;;;;;;7.78;99.64;100783.91;5050148;28;20060;-63
2021/10/14 05:31:47;;;;;;;5.20;2.45;;;;;;;7.71;100.00;100783.53;5050963;28;20056;-63
2021/10/14 05:34:32;;;;;;;4.28;2.22;;;;;;;7.96;99.00;100782.56;5047394;28;20064;-65
2021/10/14 05:37:17;;;;;;;4.50;2.80;;;;;;;8.00;98.75;100785.84;5046639;28;20064;-63
2021/10/14 05:40:02;;;;;;;4.80;2.42;;;;;;;7.98;99.12;100785.97;5040753;28;20064;-64
2021/10/14 05:42:48;;;;;;;3.88;2.05;;;;;;;7.81;99.19;100779.22;5041693;28;20047;-65
2021/10/14 05:45:34;;;;;;;5.03;3.17;;;;;;;7.78;99.94;100778.56;5046162;28;20060;-64
2021/10/14 05:48:19;;;;;;;4.30;2.63;;;;;;;7.75;100.00;100790.34;5044640;28;20179;-63
2021/10/14 05:51:04;;;;;;;5.32;2.80;;;;;;;7.79;100.00;100790.97;5044746;28;20099;-64
2021/10/14 05:53:49;;;;;;;5.78;3.55;;;;;;;7.74;100.00;100785.97;5049062;28;20122;-62
2021/10/14 05:56:34;;;;;;;4.82;3.03;;;;;;;7.98;100.00;100788.66;5071457;22;20052;-67
2021/10/14 05:59:19;;;;;;;9.55;3.78;;;;;;;7.96;100.00;100785.25;5068905;28;20059;-70
2021/10/14 06:02:05;;;;;;;6.47;3.70;;;;;;;8.08;99.70;100776.31;5069578;28;20068;-67
2021/10/14 06:04:51;;;;;;;5.40;3.70;;;;;;;8.04;100.00;100792.66;5062616;28;20055;-68
2021/10/14 06:07:35;;;;;;;8.48;4.75;;;;;;;8.08;100.00;100788.81;5065955;28;20051;-67
2021/10/14 06:10:20;;;;;;;5.30;3.00;;;;;;;8.20;99.32;100780.72;5067375;28;20060;-67
2021/10/14 06:13:06;;;;;;;6.20;3.90;;;;;;;8.25;98.67;100780.38;5071127;28;20052;-65
2021/10/14 06:15:52;;;;;;;6.72;3.85;;;;;;;8.20;99.05;100793.25;5068934;28;20052;-68
2021/10/14 06:18:39;;;;;;;5.60;3.72;;;;;;;8.29;99.56;100789.00;5066677;28;20059;-69
2021/10/14 06:21:24;;;;;;;9.27;4.72;;;;;;;8.27;99.24;100775.75;5067350;28;20060;-66
2021/10/14 06:24:11;;;;;;;6.25;3.92;;;;;;;8.32;98.85;100783.44;5068257;28;20044;-67
2021/10/14 06:26:56;;;;;;;7.45;4.38;;;;;;;8.33;99.54;100775.31;5066923;28;20058;-67
2021/10/14 06:29:41;;;;;;;7.30;4.25;;;;;;;8.40;98.87;100776.56;5067952;28;20067;-65
2021/10/14 06:32:27;;;;;;;8.65;5.22;;;;;;;8.32;99.32;100778.09;5066357;28;20256;-68
2021/10/14 06:35:13;;;;;;;8.10;4.73;;;;;;;8.31;99.69;100782.59;5066765;28;20523;-62
2021/10/14 06:37:59;;;;;;;9.10;5.32;;;;;;;8.31;100.00;100779.06;5066650;28;20060;-64
2021/10/14 06:40:44;;;;;;;8.85;5.20;;;;;;;8.26;100.00;100782.06;5050701;28;20514;-64
2021/10/14 06:43:29;;;;;;;8.25;5.53;;;;;;;8.67;97.44;100794.16;5055921;28;20090;-62
2021/10/14 06:46:14;;;;;;;11.02;5.38;;;;;;;8.57;98.33;100791.31;5053814;28;20552;-63
2021/10/14 06:48:59;;;;;;;10.80;5.65;;;;;;;8.50;99.04;100787.41;5046366;28;20194;-64
2021/10/14 06:51:45;;;;;;;11.07;5.50;;;;;;;8.60;99.15;100792.91;5064109;28;20202;-63
2021/10/14 06:54:30;;;;;;;9.18;5.68;;;;;;;8.64;99.61;100794.38;5055781;28;20047;-66
2021/10/14 06:57:16;;;;;;;11.88;6.80;;;;;;;8.85;98.25;100791.84;5061436;28;20060;-65
2021/10/14 07:00:02;;;;;;;11.57;5.20;;;;;;;8.94;98.23;100796.50;5042300;22;20541;-64
2021/10/14 07:02:47;;;;;;;14.25;7.20;;;;;;;8.95;97.98;100793.69;5027642;28;20474;-63
2021/10/14 07:05:32;;;;;;;10.93;5.55;;;;;;;9.07;98.31;100798.09;5031082;28;20052;-63
2021/10/14 07:08:18;;;;;;;8.43;5.47;;;;;;;9.04;97.07;100803.69;5047091;28;20134;-64
2021/10/14 07:11:03;;;;;;;11.70;6.68;;;;;;;8.98;98.52;100798.81;5038654;28;20615;-63
2021/10/14 07:13:48;;;;;;;8.90;5.68;;;;;;;9.00;98.53;100801.38;5041991;28;20051;-64
2021/10/14 07:16:33;;;;;;;11.67;5.90;;;;;;;9.13;97.41;100798.59;5043214;28;20094;-64
2021/10/14 07:19:19;;;;;;;10.07;5.38;;;;;;;9.12;97.98;100799.56;5044225;28;20052;-63
2021/10/14 07:22:06;;;;;;;12.50;6.47;;;;;;;9.14;97.76;100803.81;5045450;28;20052;-64
2021/10/14 07:24:52;;;;;;;9.55;5.80;;;;;;;9.20;97.42;100797.13;5046662;28;20052;-66
2021/10/14 07:27:38;;;;;;;11.23;6.10;;;;;;;9.26;98.24;100793.97;5050865;28;20605;-63
2021/10/14 07:30:23;;;;;;;10.38;5.55;;;;;;;9.54;95.87;100785.41;5047548;28;21384;-64
2021/10/14 07:33:08;;;;;;;11.13;6.93;;;;;;;9.45;97.18;100787.97;5046043;28;20103;-67
2021/10/14 07:35:53;;;;;;;9.13;5.80;;;;;;;9.66;95.18;100786.22;5048262;28;20134;-65
2021/10/14 07:38:38;;;;;;;9.25;5.65;;;;;;;9.73;95.93;100784.75;5047235;28;20052;-66
2021/10/14 07:41:25;;;;;;;8.50;4.78;;;;;;;9.77;95.66;100796.94;5050823;28;20308;-67
2021/10/14 07:44:10;;;;;;;9.18;5.05;;;;;;;9.90;94.31;100792.25;5051273;28;20056;-65
2021/10/14 07:46:55;;;;;;;8.00;5.10;;;;;;;9.84;95.37;100792.78;5045749;28;20078;-67
2021/10/14 07:49:40;;;;;;;6.65;4.38;;;;;;;9.95;94.61;100797.25;5049846;28;20175;-64
2021/10/14 07:52:25;;;;;;;6.22;3.92;;;;;;;10.18;93.23;100795.31;5050218;28;20047;-67
2021/10/14 07:55:11;;;;;;;10.00;4.35;;;;;;;10.34;94.17;100786.88;5041132;28;20048;-65
2021/10/14 07:57:57;;;;;;;4.88;3.38;;;;;;;10.20;95.09;100802.28;5051255;28;20557;-66
2021/10/14 08:00:42;;;;;;;4.13;2.80;;;;;;;10.51;92.51;100797.03;5050357;28;20229;-66
2021/10/14 08:03:27;;;;;;;4.78;2.60;;;;;;;10.53;91.77;100795.06;5051788;28;20509;-68
2021/10/14 08:06:13;;;;;;;3.90;2.70;;;;;;;10.42;93.54;100798.69;5045259;28;20052;-65
2021/10/14 08:08:58;;;;;;;3.42;2.55;;;;;;;10.42;93.72;100798.69;5050367;28;20078;-66
2021/10/14 08:11:43;;;;;;;4.63;2.72;;;;;;;10.38;93.88;100799.06;5052289;28;20148;-65
2021/10/14 08:14:29;;;;;;;4.38;2.60;;;;;;;10.60;93.64;100796.25;5048603;28;20068;-66
2021/10/14 08:17:14;;;;;;;2.65;1.73;;;;;;;11.02;89.98;100791.72;5048102;28;20060;-67
2021/10/14 08:19:59;;;;;;;2.33;1.53;;;;;;;11.12;89.46;100791.75;5061826;28;20059;-65
2021/10/14 08:22:45;;;;;;;2.47;1.55;;;;;;;10.96;90.74;100788.69;5059708;28;20056;-64
2021/10/14 08:25:30;;;;;;;3.10;1.40;;;;;;;10.91;90.99;100788.25;5057117;28;20182;-66
2021/10/14 08:28:15;;;;;;;2.00;1.35;;;;;;;11.04;89.85;100791.56;5054123;28;20569;-66
2021/10/14 08:31:01;;;;;;;2.33;1.23;;;;;;;10.96;90.40;100792.22;5045490;28;20060;-67
2021/10/14 08:33:45;;;;;;;;;;;;;;;11.00;90.99;100787.44;5051408;28;20055;-66
2021/10/14 08:36:31;;;;;;;2.67;1.30;;;;;;;10.99;90.36;100791.97;5050247;28;20409;-67
2021/10/14 08:39:16;;;;;;;1.98;1.20;;;;;;;10.82;92.76;100790.75;5050036;28;20074;-65
2021/10/14 08:42:01;;;;;;;2.20;1.30;;;;;;;10.72;92.36;100797.88;5049578;28;20060;-65
2021/10/14 08:44:48;;;;;;;3.10;1.77;;;;;;;10.61;92.60;100787.22;5048255;28;20052;-65
2021/10/14 08:47:35;;;;;;;3.33;1.60;;;;;;;10.77;91.86;100795.69;5049810;28;20526;-66
2021/10/14 08:50:20;;;;;;;2.25;1.38;;;;;;;10.91;91.93;100782.88;5046855;28;20233;-67
2021/10/14 08:53:06;;;;;;;2.10;1.00;;;;;;;11.30;90.28;100779.38;5051632;28;20066;-66
2021/10/14 08:55:51;;;;;;;2.25;1.10;;;;;;;11.52;89.03;100782.84;5044596;28;20063;-67
2021/10/14 08:58:36;;;;;;;1.27;0.75;;;;;;;11.76;87.43;100779.81;5048927;28;20110;-68
2021/10/14 09:01:21;;;;;;;1.48;1.02;;;;;;;11.54;87.73;100781.72;5039002;28;20094;-66
2021/10/14 09:04:14;;;;;;;1.38;1.27;;;;;;;11.66;85.99;100777.09;5049128;28;20051;-67
2021/10/14 09:09:38;;;;;;;0.68;0.50;;;;;;;11.40;87.87;100776.72;4987691;28;20049;-63
2021/10/14 09:12:23;;;;;;;;;;;;;;;11.36;88.38;100773.44;4986819;28;20082;-62
2021/10/14 09:15:10;;;;;;;1.02;0.70;;;;;;;11.51;87.92;100779.31;4990710;28;19928;-62
2021/10/14 09:17:55;;;;;;;2.05;0.60;;;;;;;11.45;86.98;100779.00;5005513;28;20049;-63
2021/10/14 09:20:42;;;;;;;1.55;0.90;;;;;;;11.22;89.22;100776.50;5003211;28;20056;-62
2021/10/14 09:23:29;;;;;;;;;;;;;;;10.84;91.22;100778.03;5009424;28;20060;-62
2021/10/14 09:26:14;;;;;;;2.00;1.13;;;;;;;11.04;91.15;100780.84;5005444;28;19928;-61
2021/10/14 09:29:10;;;;;;;3.42;1.77;;;;;;;10.94;91.05;100785.31;5008143;28;20060;-61
2021/10/14 09:31:58;;;;;;;3.00;1.63;;;;;;;11.03;91.31;100779.13;5002117;28;20521;-62
2021/10/14 09:34:44;;;;;;;3.92;1.73;;;;;;;10.86;91.84;100780.59;5003298;28;20064;-63
2021/10/14 09:37:33;;;;;;;4.75;2.80;;;;;;;10.69;92.47;100792.78;5004552;28;20057;-63
2021/10/14 09:40:18;;;;;;;6.60;4.07;;;;;;;10.75;92.34;100775.28;5008844;28;20411;-62
2021/10/14 09:43:04;;;;;;;8.30;4.55;;;;;;;10.57;93.26;100790.31;4998934;28;20152;-61
2021/10/14 09:45:49;;;;;;;9.05;4.97;;;;;;;10.70;92.88;100788.28;5004737;28;20402;-61
2021/10/14 09:48:38;;;;;;;9.10;5.40;;;;;;;10.55;93.79;100782.38;5010981;28;20056;-62
2021/10/14 09:51:23;;;;;;;10.50;6.00;;;;;;;10.76;93.21;100790.41;5002916;28;20052;-62
2021/10/14 09:54:10;;;;;;;13.40;7.60;;;;;;;10.86;92.83;100787.78;5001171;28;20424;-62
2021/10/14 09:56:55;;;;;;;12.82;7.55;;;;;;;10.94;92.46;100788.84;4997714;28;20640;-62
2021/10/14 09:59:43;;;;;;;14.45;7.40;;;;;;;10.96;91.79;100786.88;4999935;28;20053;-62
2021/10/14 10:02:29;;;;;;;12.32;6.68;;;;;;;11.23;90.25;100799.72;5004046;28;20057;-61
2021/10/14 10:05:15;;;;;;;14.32;7.25;;;;;;;11.46;90.09;100788.75;4999273;28;20061;-63
2021/10/14 10:08:03;;;;;;;16.33;7.32;;;;;;;11.70;88.11;100781.19;4998928;28;20097;-62
2021/10/14 10:10:51;;;;;;;14.05;7.22;;;;;;;11.95;87.63;100786.06;5001793;28;20159;-62
2021/10/14 10:13:38;;;;;;;15.23;6.43;;;;;;;12.12;87.09;100789.06;4999570;28;20411;-61
2021/10/14 10:16:25;;;;;;;15.63;7.70;;;;;;;12.24;87.51;100785.25;4999629;28;20623;-62
2021/10/14 10:19:13;;;;;;;8.70;6.10;;;;;;;12.39;84.91;100778.44;5000555;28;20467;-61
2021/10/14 10:21:58;;;;;;;11.18;6.10;;;;;;;12.37;85.15;100780.44;4997492;28;20106;-62
2021/10/14 10:24:43;;;;;;;10.40;5.60;;;;;;;12.43;84.89;100779.88;4998970;28;20061;-62
2021/10/14 10:27:34;;;;;;;9.63;5.28;;;;;;;12.54;85.45;100778.84;4998075;28;20412;-61
2021/10/14 10:30:29;;;;;;;8.82;5.57;;;;;;;12.34;83.98;100769.97;4990836;28;20120;-60
2021/10/14 10:33:50;;;;;;;10.35;5.75;;;;;;;12.27;84.79;100782.28;4994868;28;20524;-62
2021/10/14 10:36:46;;;;;;;11.60;6.00;;;;;;;12.22;85.10;100774.63;4995407;28;20076;-62
2021/10/14 10:39:44;;;;;;;11.88;6.18;;;;;;;12.39;84.85;100777.59;5000779;28;20123;-61
2021/10/14 10:42:32;;;;;;;8.60;5.15;;;;;;;12.50;85.19;100770.22;4999170;28;20057;-61
2021/10/14 10:45:21;;;;;;;12.95;6.25;;;;;;;12.58;83.85;100764.97;4998147;28;20415;-62
2021/10/14 10:48:07;;;;;;;9.88;6.78;;;;;;;12.63;84.94;100769.06;4999475;28;20423;-62
2021/10/14 10:50:55;;;;;;;13.30;7.23;;;;;;;12.71;85.55;100761.13;4994643;28;20599;-60
2021/10/14 10:53:44;;;;;;;13.80;6.68;;;;;;;12.90;84.80;100761.03;4994710;28;20527;-60
2021/10/14 10:56:31;;;;;;;15.82;7.45;;;;;;;12.85;84.35;100760.66;5002816;28;20108;-59
2021/10/14 10:59:21;;;;;;;12.10;6.80;;;;;;;12.68;85.24;100761.41;5000637;28;20061;-62
2021/10/14 11:02:08;;;;;;;9.70;6.00;;;;;;;12.83;83.51;100762.66;4997641;28;20509;-61
2021/10/14 11:04:54;;;;;;;10.65;6.40;;;;;;;12.68;83.11;100750.66;4999996;28;20053;-61
2021/10/14 11:07:39;;;;;;;10.85;6.63;;;;;;;12.37;86.33;100753.50;5000749;28;20522;-62
2021/10/14 11:10:28;;;;;;;11.47;6.70;;;;;;;12.54;83.83;100742.00;4998540;28;20060;-62
2021/10/14 11:13:13;;;;;;;11.35;6.20;;;;;;;12.83;84.79;100744.63;5001213;28;20185;-59
2021/10/14 11:15:59;;;;;;;9.82;7.03;;;;;;;13.10;82.47;100734.88;5004185;28;20081;-60
2021/10/14 11:18:46;;;;;;;13.88;7.10;;;;;;;13.61;80.46;100739.75;4998620;28;20053;-62
2021/10/14 11:21:32;;;;;;;9.77;5.55;;;;;;;13.59;80.28;100739.06;5000946;28;20108;-62
2021/10/14 11:24:18;;;;;;;11.05;5.32;;;;;;;13.34;80.76;100747.84;5005869;28;20115;-62
2021/10/14 11:27:12;;;;;;;12.03;6.60;;;;;;;12.80;83.85;100747.63;5010419;28;20243;-61
2021/10/14 11:30:13;;;;;;;10.00;6.53;;;;;;;12.61;83.64;100755.75;5007616;28;20112;-61
2021/10/14 11:33:08;;;;;;;14.02;6.88;;;;;;;12.34;84.98;100742.19;5009862;28;20140;-62
2021/10/14 11:35:59;;;;;;;8.85;5.65;;;;;;;12.31;85.78;100743.31;5009130;28;20053;-62
2021/10/14 11:38:56;;;;;;;13.07;6.95;;;;;;;12.18;85.64;100738.22;5004997;28;20056;-62
2021/10/14 11:41:42;;;;;;;12.27;6.03;;;;;;;12.12;85.70;100727.19;5009763;28;20060;-61
2021/10/14 11:44:28;;;;;;;13.93;7.20;;;;;;;11.95;86.41;100736.81;5006254;28;20158;-63
2021/10/14 11:47:15;;;;;;;12.82;8.10;;;;;;;11.98;85.86;100739.22;5009577;28;20062;-61
2021/10/14 11:50:02;;;;;;;14.02;8.18;;;;;;;11.88;87.10;100735.69;5005328;28;20061;-61
2021/10/14 11:53:00;;;;;;;14.13;7.65;;;;;;;11.88;87.06;100733.00;5011239;28;20310;-63
2021/10/14 11:55:56;;;;;;;14.60;8.10;;;;;;;12.14;85.11;100733.28;5010694;28;20060;-61
2021/10/14 11:58:42;;;;;;;15.57;8.32;;;;;;;12.34;85.61;100731.44;5009937;28;20065;-62
2021/10/14 12:01:27;;;;;;;12.68;7.50;;;;;;;12.69;83.45;100731.66;5005575;28;20072;-60
2021/10/14 12:04:15;;;;;;;14.77;7.50;;;;;;;12.78;83.74;100725.34;5009157;28;20129;-62
2021/10/14 12:07:01;;;;;;;12.07;7.65;;;;;;;13.08;82.56;100726.09;5001240;28;20411;-63
2021/10/14 12:09:49;;;;;;;16.98;7.93;;;;;;;13.15;81.21;100721.84;5009807;28;20077;-62
2021/10/14 12:12:34;;;;;;;14.18;8.02;;;;;;;12.79;82.57;100715.47;5003463;28;20076;-61
2021/10/14 12:15:19;;;;;;;14.77;9.30;;;;;;;12.57;83.98;100711.25;5006772;28;20084;-63
2021/10/14 12:18:06;;;;;;;13.32;7.80;;;;;;;12.72;83.51;100709.78;5002213;28;20455;-63
2021/10/14 12:20:51;;;;;;;10.60;6.68;;;;;;;12.82;82.71;100710.63;5001203;28;20056;-62
2021/10/14 12:23:40;;;;;;;12.35;6.70;;;;;;;12.82;83.58;100707.06;5005299;28;20057;-63
2021/10/14 12:26:34;;;;;;;11.13;7.38;;;;;;;12.76;83.33;100711.19;5005370;28;20048;-63
2021/10/14 12:29:24;;;;;;;9.90;6.28;;;;;;;12.76;83.51;100710.34;5003795;28;20176;-63
2021/10/14 12:32:13;;;;;;;9.00;6.40;;;;;;;12.65;84.62;100707.81;5005750;28;20057;-62
2021/10/14 12:34:59;;;;;;;8.18;5.68;;;;;;;12.65;84.62;100702.44;5002276;28;20053;-63
2021/10/14 12:37:44;;;;;;;11.55;7.03;;;;;;;12.76;85.17;100695.03;5006878;28;20081;-63
2021/10/14 12:40:29;;;;;;;10.82;6.38;;;;;;;13.08;82.52;100699.16;5009309;28;20088;-65
2021/10/14 12:43:20;;;;;;;8.27;5.80;;;;;;;13.48;81.72;100684.47;5003403;28;20060;-63
2021/10/14 12:46:19;;;;;;;8.18;5.72;;;;;;;13.77;81.69;100687.00;5006176;28;20283;-64
2021/10/14 12:52:18;;;;;;;8.18;5.45;;;;;;;14.00;80.34;100680.13;5004992;28;20053;-64
2021/10/14 12:55:05;;;;;;;8.10;5.32;;;;;;;14.01;78.27;100676.41;5003193;28;20436;-62
2021/10/14 12:57:50;;;;;;;7.32;5.20;;;;;;;13.99;77.90;100678.44;5001565;28;20439;-62
2021/10/14 13:00:36;;;;;;;7.63;5.13;;;;;;;13.86;78.86;100683.38;5008163;28;20188;-63
2021/10/14 13:03:22;;;;;;;9.60;5.30;;;;;;;13.54;80.26;100671.25;5006101;28;20056;-62